Accueil
METAR-TAF:

METAR-TAF

Aéroports :

Sydney, Nouvelle-Écosse, Canada

latitude: 46-10N, longitude: 060-03W, altitude: 56 m

Observation

Le bulletin a été fait il y a 22 minutes, à 02:00 UTC
Vent 12 kt de nord-ouest
Température -8°C
Humidité 67%
Pression 1033 hPa
Visibilité: 24.1 km
Nuages fragmentés à une hauteur de 21000 ft

METAR: CYQY 230200Z 31012KT 15SM BKN210 M08/M13 A3050 RMK CS7 SLP335

Heure: 22:22 (02:22 UTC)

Prévision

Le bulletin a été fait il y a 2 heures et 44 minutes, à 23:38 UTC
Prévision valable du 23 à 00 UTC au 23 à 12 UTC
Vent 10 kt de ouest/nord-ouest avec des rafales jusqu'à 20 kt
Visibilité: 10 km
Ciel couvert à une hauteur de 18000 ft
A partir de 23 à 0300 UTC
Vent 10 kt de nord-ouest avec des rafales jusqu'à 20 kt
Visibilité: 10 km
Ciel clair

TAF: CYQY 222338Z 2300/2312 30010G20KT P6SM OVC180 FM230300 32010G20KT P6SM SKC RMK NXT FCST BY 230600Z

Observations et prévisions météorologiques de plus de 4000 aéroports (messages METAR et TAF).

Les stations disponibles sont représentées par des disques jaunes et rouges sur la carte.

Passer la souris dessus pour voir le nom de la station.

Cliquer dessus pour voir les observations et prévisions météorologiques.

Pour changer de carte: cliquez sur les boutons verts avec une croix noire pour zoomer, sur le bouton vert avec un tiret pour effectuer un zoom arrière, ou sur les flèches vertes pour les cartes adjacentes.


METAR-TAF: